createdAt,value
2023-04-13T00:00:24.433Z,10.29
2023-04-13T00:02:56.408Z,10.26
2023-04-13T00:05:26.566Z,10.28
2023-04-13T00:07:57.119Z,10.28
2023-04-13T00:10:27.079Z,10.27
2023-04-13T00:12:58.032Z,10.28
2023-04-13T00:15:27.805Z,10.29
2023-04-13T00:17:58.074Z,10.29
2023-04-13T00:20:28.786Z,10.27
2023-04-13T00:22:57.368Z,10.27
2023-04-13T00:25:27.262Z,10.29
2023-04-13T00:27:55.940Z,10.29
2023-04-13T00:30:25.895Z,10.31
2023-04-13T00:32:57.203Z,10.30
2023-04-13T00:35:26.439Z,10.28
2023-04-13T00:37:55.400Z,10.26
2023-04-13T00:40:28.016Z,10.27
2023-04-13T00:42:57.416Z,10.27
2023-04-13T00:45:26.429Z,10.26
2023-04-13T00:47:58.221Z,10.27
2023-04-13T00:50:27.761Z,10.28
2023-04-13T00:52:57.902Z,10.25
2023-04-13T00:55:28.692Z,10.22
2023-04-13T00:57:59.191Z,10.24
2023-04-13T01:00:28.031Z,10.26
2023-04-13T01:03:00.502Z,10.26
2023-04-13T01:05:53.931Z,10.26
2023-04-13T01:08:34.897Z,10.26
2023-04-13T01:11:07.477Z,10.25
2023-04-13T01:13:47.556Z,10.23
2023-04-13T01:16:24.719Z,10.24
2023-04-13T01:18:53.831Z,10.24
2023-04-13T01:21:25.684Z,10.26
2023-04-13T01:24:17.255Z,10.27
2023-04-13T01:27:12.956Z,10.23
2023-04-13T01:29:43.030Z,10.23
2023-04-13T01:32:11.536Z,10.22
2023-04-13T01:34:41.161Z,10.21
2023-04-13T01:37:11.243Z,10.20
2023-04-13T01:39:40.596Z,10.19
2023-04-13T01:42:12.496Z,10.18
2023-04-13T01:44:43.492Z,10.18
2023-04-13T01:47:20.156Z,10.18
2023-04-13T01:50:00.250Z,10.17
2023-04-13T01:52:32.727Z,10.16
2023-04-13T01:55:01.959Z,10.14
2023-04-13T01:57:32.746Z,10.17
2023-04-13T02:00:05.655Z,10.17
2023-04-13T02:02:37.880Z,10.18
2023-04-13T02:05:09.846Z,10.18
2023-04-13T02:07:39.993Z,10.19
2023-04-13T02:10:10.041Z,10.20
2023-04-13T02:12:41.353Z,10.21
2023-04-13T02:15:11.471Z,10.21
2023-04-13T02:17:44.521Z,10.21
2023-04-13T02:20:13.573Z,10.22
2023-04-13T02:22:43.641Z,10.22
2023-04-13T02:25:15.556Z,10.24
2023-04-13T02:27:45.163Z,10.22
2023-04-13T02:30:14.162Z,10.19
2023-04-13T02:32:48.537Z,10.16
2023-04-13T02:35:17.478Z,10.17
2023-04-13T02:37:46.571Z,10.18
2023-04-13T02:40:17.406Z,10.20
2023-04-13T02:42:47.931Z,10.19
2023-04-13T02:45:18.366Z,10.17
2023-04-13T02:47:52.361Z,10.15
2023-04-13T02:50:23.419Z,10.11
2023-04-13T02:52:54.350Z,10.09
2023-04-13T02:55:24.823Z,10.08
2023-04-13T02:57:57.639Z,10.08
2023-04-13T03:00:28.561Z,10.10
2023-04-13T03:03:02.336Z,10.11
2023-04-13T03:05:33.009Z,10.11
2023-04-13T03:08:02.010Z,10.09
2023-04-13T03:10:31.933Z,10.10
2023-04-13T03:13:01.886Z,10.11
2023-04-13T03:15:31.397Z,10.10
2023-04-13T03:18:03.188Z,10.10
2023-04-13T03:20:32.269Z,10.10
2023-04-13T03:23:02.260Z,10.09
2023-04-13T03:25:35.211Z,10.07
2023-04-13T03:28:06.123Z,10.05
2023-04-13T03:30:36.879Z,10.03
2023-04-13T03:33:06.977Z,10.03
2023-04-13T03:35:38.214Z,10.04
2023-04-13T03:38:08.763Z,10.07
2023-04-13T03:40:41.029Z,10.07
2023-04-13T03:43:11.034Z,10.07
2023-04-13T03:45:41.687Z,10.07
2023-04-13T03:48:12.581Z,10.08
2023-04-13T03:50:41.192Z,10.07
2023-04-13T03:53:11.617Z,10.08
2023-04-13T03:55:41.806Z,10.08
2023-04-13T03:58:11.725Z,10.09
2023-04-13T04:00:42.314Z,10.10
2023-04-13T04:03:15.389Z,10.09
2023-04-13T04:05:46.325Z,10.09
2023-04-13T04:08:17.056Z,10.09
2023-04-13T04:10:45.913Z,10.11
2023-04-13T04:13:16.441Z,10.13
2023-04-13T04:15:47.948Z,10.14
2023-04-13T04:18:18.556Z,10.14
2023-04-13T04:20:47.476Z,10.15
2023-04-13T04:23:19.718Z,10.16
2023-04-13T04:25:50.701Z,10.16
2023-04-13T04:28:19.740Z,10.17
2023-04-13T04:30:51.039Z,10.18
2023-04-13T04:33:23.441Z,10.19
2023-04-13T04:35:52.133Z,10.19
2023-04-13T04:38:24.317Z,10.17
2023-04-13T04:40:55.070Z,10.17
2023-04-13T04:43:26.894Z,10.18
2023-04-13T04:46:01.284Z,10.19
2023-04-13T04:48:31.944Z,10.21
2023-04-13T04:51:03.699Z,10.22
2023-04-13T04:53:34.204Z,10.23
2023-04-13T04:56:04.573Z,10.24
2023-04-13T04:58:45.492Z,10.24
2023-04-13T05:01:17.654Z,10.26
2023-04-13T05:03:47.783Z,10.28
2023-04-13T05:06:24.073Z,10.28
2023-04-13T05:08:53.608Z,10.29
2023-04-13T05:11:23.105Z,10.31
2023-04-13T05:13:55.821Z,10.33
2023-04-13T05:16:27.499Z,10.37
2023-04-13T05:18:56.750Z,10.40
2023-04-13T05:21:45.779Z,10.39
2023-04-13T05:24:14.393Z,10.43
2023-04-13T05:26:43.388Z,10.43
2023-04-13T05:29:13.340Z,10.46
2023-04-13T05:31:46.300Z,10.47
2023-04-13T05:34:16.276Z,10.51
2023-04-13T05:36:47.154Z,10.56
2023-04-13T05:39:16.771Z,10.61
2023-04-13T05:41:46.828Z,10.66
2023-04-13T05:44:17.643Z,10.68
2023-04-13T05:46:48.945Z,10.72
2023-04-13T05:49:18.121Z,10.79
2023-04-13T05:51:47.890Z,10.86
2023-04-13T05:54:18.275Z,10.93
2023-04-13T05:56:50.356Z,10.97
2023-04-13T05:59:20.746Z,11.00
2023-04-13T06:01:52.122Z,11.03
2023-04-13T06:04:22.534Z,11.05
2023-04-13T06:06:51.879Z,11.11
2023-04-13T06:09:21.136Z,11.14
2023-04-13T06:11:49.936Z,11.15
2023-04-13T06:14:22.418Z,11.14
2023-04-13T06:16:52.710Z,11.14
2023-04-13T06:19:21.732Z,11.12
2023-04-13T06:21:51.576Z,11.10
2023-04-13T06:24:21.453Z,11.11
2023-04-13T06:26:51.048Z,11.10
2023-04-13T06:29:23.792Z,11.13
2023-04-13T06:31:54.816Z,11.16
2023-04-13T06:34:23.676Z,11.19
2023-04-13T06:36:52.447Z,11.21
2023-04-13T06:39:22.246Z,11.19
2023-04-13T06:41:52.831Z,11.18
2023-04-13T06:44:24.053Z,11.17
2023-04-13T06:47:00.621Z,11.18
2023-04-13T06:49:35.343Z,11.20
2023-04-13T06:52:05.307Z,11.15
2023-04-13T06:54:35.062Z,11.15
2023-04-13T06:57:06.906Z,11.17
2023-04-13T06:59:36.483Z,11.21
2023-04-13T07:02:05.071Z,11.23
2023-04-13T07:04:34.919Z,11.27
2023-04-13T07:07:05.228Z,11.28
2023-04-13T07:09:34.068Z,11.32
2023-04-13T07:12:07.173Z,11.39
2023-04-13T07:14:40.252Z,11.42
2023-04-13T07:17:12.758Z,11.47
2023-04-13T07:19:47.584Z,11.56
2023-04-13T07:22:17.030Z,11.60
2023-04-13T07:24:47.226Z,11.65
2023-04-13T07:27:17.931Z,11.72
2023-04-13T07:29:50.824Z,11.81
2023-04-13T07:32:21.770Z,11.86
2023-04-13T07:34:52.041Z,11.96
2023-04-13T07:37:21.110Z,12.05
2023-04-13T07:39:49.820Z,12.15
2023-04-13T07:42:18.695Z,12.19
2023-04-13T07:44:49.236Z,12.28
2023-04-13T07:47:18.966Z,12.36
2023-04-13T07:49:47.832Z,12.45
2023-04-13T07:52:21.698Z,12.50
2023-04-13T07:54:51.333Z,12.54
2023-04-13T07:57:21.962Z,12.58
2023-04-13T07:59:52.568Z,12.60
2023-04-13T08:02:23.578Z,12.61
2023-04-13T08:04:54.762Z,12.65
2023-04-13T08:07:29.144Z,12.68
2023-04-13T08:09:57.937Z,12.70
2023-04-13T08:12:26.576Z,12.70
2023-04-13T08:14:57.447Z,12.73
2023-04-13T08:17:26.539Z,12.74
2023-04-13T08:19:55.709Z,12.72
2023-04-13T08:22:26.290Z,12.69
2023-04-13T08:24:56.166Z,12.64
2023-04-13T08:27:25.758Z,12.64
2023-04-13T08:29:57.829Z,12.68
2023-04-13T08:32:28.590Z,12.71
2023-04-13T08:34:57.869Z,12.75
2023-04-13T08:37:28.573Z,12.77
2023-04-13T08:40:00.451Z,12.78
2023-04-13T08:42:29.752Z,12.82
2023-04-13T08:44:59.328Z,12.85
2023-04-13T08:47:29.677Z,12.89
2023-04-13T08:50:00.748Z,12.94
2023-04-13T08:52:46.557Z,12.99
2023-04-13T08:55:18.081Z,13.06
2023-04-13T08:57:51.564Z,13.08
2023-04-13T09:00:23.548Z,13.11
2023-04-13T09:03:06.132Z,13.13
2023-04-13T09:05:31.315Z,13.13
2023-04-13T09:08:03.533Z,13.14
2023-04-13T09:10:34.884Z,13.17
2023-04-13T09:13:04.608Z,13.20
2023-04-13T09:15:34.172Z,13.21
2023-04-13T09:21:03.003Z,13.29
2023-04-13T09:23:32.623Z,13.30
2023-04-13T09:26:07.823Z,13.34
2023-04-13T09:28:49.264Z,13.38
2023-04-13T09:31:18.601Z,13.41
2023-04-13T09:33:50.587Z,13.39
2023-04-13T09:36:22.100Z,13.38
2023-04-13T09:38:55.836Z,13.39
2023-04-13T09:41:37.446Z,13.43
2023-04-13T09:44:20.077Z,13.49
2023-04-13T09:47:02.373Z,13.57
2023-04-13T09:49:42.627Z,13.66
2023-04-13T09:52:24.459Z,13.71
2023-04-13T09:54:56.841Z,13.73
2023-04-13T09:57:30.753Z,13.72
2023-04-13T10:00:02.056Z,13.74
2023-04-13T10:02:34.326Z,13.74
2023-04-13T10:05:03.705Z,13.73
2023-04-13T10:07:33.943Z,13.74
2023-04-13T10:10:05.163Z,13.71
2023-04-13T10:12:36.412Z,13.68
2023-04-13T10:15:45.216Z,13.68
2023-04-13T10:18:49.980Z,13.69
2023-04-13T10:21:19.048Z,13.69
2023-04-13T10:23:48.159Z,13.64
2023-04-13T10:26:17.207Z,13.62
2023-04-13T10:28:47.504Z,13.60
2023-04-13T10:31:18.096Z,13.58
2023-04-13T10:33:53.013Z,13.52
2023-04-13T10:36:22.101Z,13.46
2023-04-13T10:38:52.233Z,13.40
2023-04-13T10:41:25.751Z,13.38
2023-04-13T10:44:08.098Z,13.37
2023-04-13T10:46:37.479Z,13.32
2023-04-13T10:49:06.409Z,13.27
2023-04-13T10:51:43.045Z,13.25
2023-04-13T10:54:13.160Z,13.21
2023-04-13T10:56:42.694Z,13.16
2023-04-13T10:59:11.431Z,13.15
2023-04-13T11:01:40.770Z,13.13
2023-04-13T11:04:14.090Z,13.12
2023-04-13T11:06:42.428Z,13.10
2023-04-13T11:09:15.191Z,13.10
2023-04-13T11:11:42.442Z,13.10
2023-04-13T11:14:23.195Z,13.11
2023-04-13T11:16:58.484Z,13.09
2023-04-13T11:19:25.728Z,13.08
2023-04-13T11:21:57.659Z,13.08
2023-04-13T11:24:28.130Z,13.08
2023-04-13T11:26:57.397Z,13.06
2023-04-13T11:29:26.854Z,13.05
2023-04-13T11:31:56.161Z,13.04
2023-04-13T11:34:25.994Z,13.01
2023-04-13T11:37:05.394Z,12.99
2023-04-13T11:39:35.827Z,12.97
2023-04-13T11:42:08.037Z,12.93
2023-04-13T11:44:38.356Z,12.88
2023-04-13T11:47:08.465Z,12.87
2023-04-13T11:49:40.495Z,12.85
2023-04-13T11:52:09.195Z,12.85
2023-04-13T11:54:38.037Z,12.79
2023-04-13T11:57:06.962Z,12.73
2023-04-13T11:59:36.515Z,12.71
2023-04-13T12:02:09.562Z,12.65
2023-04-13T12:04:40.775Z,12.58
2023-04-13T12:07:14.211Z,12.53
2023-04-13T12:09:56.319Z,12.51
2023-04-13T12:12:50.571Z,12.47
2023-04-13T12:15:15.452Z,12.46
2023-04-13T12:17:41.286Z,12.44
2023-04-13T12:20:10.025Z,12.40
2023-04-13T12:22:51.827Z,12.33
2023-04-13T12:25:18.267Z,12.30
2023-04-13T12:27:53.433Z,12.26
2023-04-13T12:30:24.708Z,12.24
2023-04-13T12:32:55.948Z,12.22
2023-04-13T12:35:24.397Z,12.23
2023-04-13T12:37:53.426Z,12.23
2023-04-13T12:40:23.100Z,12.18
2023-04-13T12:42:51.966Z,12.16
2023-04-13T12:45:20.913Z,12.17
2023-04-13T12:47:49.918Z,12.15
2023-04-13T12:50:18.643Z,12.15
2023-04-13T12:52:49.435Z,12.17
2023-04-13T12:55:18.764Z,12.20
2023-04-13T12:57:48.932Z,12.23
2023-04-13T13:00:18.524Z,12.24
2023-04-13T13:02:52.147Z,12.23
2023-04-13T13:05:19.154Z,12.23
2023-04-13T13:07:48.763Z,12.19
2023-04-13T13:10:29.089Z,12.19
2023-04-13T13:12:50.728Z,12.16
2023-04-13T13:15:19.812Z,12.11
2023-04-13T13:17:49.465Z,12.08
2023-04-13T13:20:18.376Z,12.05
2023-04-13T13:22:48.004Z,12.05
2023-04-13T13:25:16.710Z,12.02
2023-04-13T13:30:16.250Z,11.97
2023-04-13T13:32:46.083Z,11.96
2023-04-13T13:35:15.160Z,11.96
2023-04-13T13:37:43.802Z,11.97
2023-04-13T13:40:13.482Z,11.97
2023-04-13T13:45:12.630Z,11.99
2023-04-13T13:47:42.079Z,11.99
2023-04-13T13:50:12.676Z,12.00
2023-04-13T13:52:59.205Z,12.01
2023-04-13T13:55:17.227Z,12.04
2023-04-13T13:57:51.737Z,12.06
2023-04-13T14:00:23.021Z,12.04
2023-04-13T14:02:52.290Z,12.02
2023-04-13T14:05:21.892Z,11.99
2023-04-13T14:07:51.011Z,11.99
2023-04-13T14:10:19.692Z,11.99
2023-04-13T14:12:50.457Z,12.00
2023-04-13T14:15:20.766Z,12.03
2023-04-13T14:18:02.506Z,12.06
2023-04-13T14:20:22.324Z,12.06
2023-04-13T14:22:51.155Z,12.06
2023-04-13T14:25:20.059Z,12.08
2023-04-13T14:27:49.908Z,12.10
2023-04-13T14:30:19.964Z,12.11
2023-04-13T14:32:51.230Z,12.11
2023-04-13T14:35:21.947Z,12.10
2023-04-13T14:37:52.576Z,12.11
2023-04-13T14:40:22.973Z,12.13
2023-04-13T14:42:52.384Z,12.16
2023-04-13T14:45:22.517Z,12.15
2023-04-13T14:47:53.710Z,12.14
2023-04-13T14:50:23.975Z,12.15
2023-04-13T14:52:53.339Z,12.15
2023-04-13T14:55:22.557Z,12.13
2023-04-13T14:57:51.393Z,12.11
2023-04-13T15:00:25.326Z,12.10
2023-04-13T15:02:55.739Z,12.05
2023-04-13T15:05:25.264Z,12.04
2023-04-13T15:07:55.450Z,12.02
2023-04-13T15:10:24.760Z,12.03
2023-04-13T15:12:54.567Z,11.99
2023-04-13T15:15:23.655Z,11.99
2023-04-13T15:17:53.634Z,11.98
2023-04-13T15:20:23.632Z,11.97
2023-04-13T15:22:54.514Z,11.96
2023-04-13T15:25:22.957Z,11.96
2023-04-13T15:27:57.994Z,11.96
2023-04-13T15:30:31.868Z,11.98
2023-04-13T15:33:02.294Z,11.98
2023-04-13T15:35:31.182Z,11.98
2023-04-13T15:38:01.607Z,11.98
2023-04-13T15:40:33.267Z,11.97
2023-04-13T15:43:03.343Z,11.97
2023-04-13T15:45:32.087Z,11.98
2023-04-13T15:48:02.411Z,11.97
2023-04-13T15:50:32.512Z,11.97
2023-04-13T15:53:01.331Z,11.96
2023-04-13T15:55:30.154Z,11.95
2023-04-13T15:57:59.474Z,11.94
2023-04-13T16:00:28.241Z,11.91
2023-04-13T16:02:58.254Z,11.90
2023-04-13T16:05:27.096Z,11.86
2023-04-13T16:07:57.741Z,11.85
2023-04-13T16:10:28.284Z,11.82
2023-04-13T16:12:57.064Z,11.82
2023-04-13T16:15:25.754Z,11.82
2023-04-13T16:17:56.696Z,11.82
2023-04-13T16:20:28.322Z,11.82
2023-04-13T16:22:58.831Z,11.82
2023-04-13T16:25:28.768Z,11.80
2023-04-13T16:27:58.774Z,11.75
2023-04-13T16:30:27.754Z,11.74
2023-04-13T16:32:56.799Z,11.71
2023-04-13T16:35:25.733Z,11.66
2023-04-13T16:37:54.181Z,11.65
2023-04-13T16:40:24.241Z,11.62
2023-04-13T16:42:53.803Z,11.63
2023-04-13T16:45:24.375Z,11.63
2023-04-13T16:47:54.925Z,11.60
2023-04-13T16:50:25.632Z,11.59
2023-04-13T16:52:55.653Z,11.59
2023-04-13T16:55:26.639Z,11.58
2023-04-13T16:57:55.359Z,11.56
2023-04-13T17:00:26.550Z,11.55
2023-04-13T17:02:56.145Z,11.55
2023-04-13T17:05:26.640Z,11.55
2023-04-13T17:07:57.367Z,11.52
2023-04-13T17:10:26.295Z,11.52
2023-04-13T17:12:55.929Z,11.53
2023-04-13T17:15:26.991Z,11.54
2023-04-13T17:17:56.287Z,11.54
2023-04-13T17:20:26.312Z,11.53
2023-04-13T17:22:56.800Z,11.52
2023-04-13T17:25:27.010Z,11.53
2023-04-13T17:27:58.182Z,11.52
2023-04-13T17:30:27.730Z,11.50
2023-04-13T17:32:58.252Z,11.49
2023-04-13T17:35:27.168Z,11.49
2023-04-13T17:37:55.845Z,11.48
2023-04-13T17:40:26.231Z,11.47
2023-04-13T17:42:55.646Z,11.46
2023-04-13T17:45:24.087Z,11.43
2023-04-13T17:47:53.297Z,11.42
2023-04-13T17:50:22.498Z,11.43
2023-04-13T17:52:51.106Z,11.39
2023-04-13T17:55:22.428Z,11.35
2023-04-13T17:57:50.949Z,11.33
2023-04-13T18:00:20.136Z,11.32
2023-04-13T18:02:50.624Z,11.29
2023-04-13T18:05:19.301Z,11.26
2023-04-13T18:07:48.056Z,11.24
2023-04-13T18:10:17.447Z,11.21
2023-04-13T18:12:47.406Z,11.19
2023-04-13T18:15:16.500Z,11.16
2023-04-13T18:17:48.813Z,11.13
2023-04-13T18:20:18.924Z,11.13
2023-04-13T18:22:49.275Z,11.11
2023-04-13T18:25:18.357Z,11.09
2023-04-13T18:27:47.151Z,11.09
2023-04-13T18:30:17.372Z,11.12
2023-04-13T18:32:51.609Z,11.14
2023-04-13T18:35:20.759Z,11.13
2023-04-13T18:37:50.858Z,11.12
2023-04-13T18:40:20.134Z,11.13
2023-04-13T18:42:50.130Z,11.11
2023-04-13T18:45:20.777Z,11.12
2023-04-13T18:47:50.964Z,11.09
2023-04-13T18:50:19.620Z,11.13
2023-04-13T18:52:48.397Z,11.13
2023-04-13T18:55:17.270Z,11.14
2023-04-13T18:57:47.571Z,11.14
2023-04-13T19:00:17.229Z,11.14
2023-04-13T19:02:48.431Z,11.15
2023-04-13T19:05:18.849Z,11.14
2023-04-13T19:07:59.370Z,11.14
2023-04-13T19:10:28.946Z,11.12
2023-04-13T19:12:57.957Z,11.13
2023-04-13T19:15:28.224Z,11.11
2023-04-13T19:17:57.085Z,11.09
2023-04-13T19:20:25.912Z,11.10
2023-04-13T19:22:54.388Z,11.09
2023-04-13T19:25:25.863Z,11.10
2023-04-13T19:27:56.262Z,11.08
2023-04-13T19:30:24.981Z,11.04
2023-04-13T19:32:56.859Z,11.06
2023-04-13T19:35:25.951Z,11.02
2023-04-13T19:37:54.829Z,11.02
2023-04-13T19:40:26.232Z,11.00
2023-04-13T19:42:55.629Z,10.99
2023-04-13T19:45:24.723Z,10.97
2023-04-13T19:47:54.268Z,10.96
2023-04-13T19:50:23.146Z,10.95
2023-04-13T19:52:52.981Z,10.93
2023-04-13T19:55:22.085Z,10.91
2023-04-13T19:57:51.468Z,10.89
2023-04-13T20:00:19.915Z,10.89
2023-04-13T20:02:51.385Z,10.88
2023-04-13T20:05:20.308Z,10.88
2023-04-13T20:07:49.369Z,10.88
2023-04-13T20:10:18.082Z,10.88
2023-04-13T20:12:46.968Z,10.89
2023-04-13T20:15:16.642Z,10.90
2023-04-13T20:17:47.818Z,10.92
2023-04-13T20:20:17.668Z,10.90
2023-04-13T20:22:46.270Z,10.89
2023-04-13T20:25:14.776Z,10.89
2023-04-13T20:27:45.339Z,10.87
2023-04-13T20:30:15.921Z,10.87
2023-04-13T20:32:46.126Z,10.87
2023-04-13T20:35:15.961Z,10.87
2023-04-13T20:37:44.739Z,10.87
2023-04-13T20:40:14.604Z,10.86
2023-04-13T20:42:45.079Z,10.83
2023-04-13T20:45:14.577Z,10.83
2023-04-13T20:47:44.576Z,10.80
2023-04-13T20:50:15.248Z,10.81
2023-04-13T20:52:46.107Z,10.80
2023-04-13T20:55:21.052Z,10.81
2023-04-13T20:57:49.910Z,10.78
2023-04-13T21:00:21.251Z,10.77
2023-04-13T21:02:52.662Z,10.76
2023-04-13T21:05:21.869Z,10.75
2023-04-13T21:07:51.658Z,10.77
2023-04-13T21:10:21.729Z,10.76
2023-04-13T21:12:51.851Z,10.74
2023-04-13T21:15:20.982Z,10.73
2023-04-13T21:17:51.380Z,10.75
2023-04-13T21:20:20.201Z,10.75
2023-04-13T21:22:48.712Z,10.75
2023-04-13T21:25:18.762Z,10.75
2023-04-13T21:27:48.249Z,10.72
2023-04-13T21:30:17.535Z,10.72
2023-04-13T21:32:47.835Z,10.72
2023-04-13T21:35:18.126Z,10.73
2023-04-13T21:37:46.886Z,10.73
2023-04-13T21:40:17.865Z,10.71
2023-04-13T21:42:49.235Z,10.71
2023-04-13T21:45:18.015Z,10.72
2023-04-13T21:47:48.444Z,10.70
2023-04-13T21:50:17.387Z,10.68
2023-04-13T21:52:47.328Z,10.69
2023-04-13T21:55:18.748Z,10.70
2023-04-13T21:57:47.227Z,10.71
2023-04-13T22:00:17.752Z,10.70
2023-04-13T22:02:46.156Z,10.68
2023-04-13T22:05:16.594Z,10.67
2023-04-13T22:07:48.659Z,10.67
2023-04-13T22:10:18.802Z,10.64
2023-04-13T22:12:47.280Z,10.62
2023-04-13T22:15:16.359Z,10.58
2023-04-13T22:17:47.497Z,10.55
2023-04-13T22:20:19.853Z,10.53
2023-04-13T22:22:48.668Z,10.51
2023-04-13T22:25:18.212Z,10.52
2023-04-13T22:27:46.819Z,10.48
2023-04-13T22:30:17.403Z,10.44
2023-04-13T22:32:46.797Z,10.43
2023-04-13T22:35:16.235Z,10.39
2023-04-13T22:37:46.110Z,10.39
2023-04-13T22:40:15.127Z,10.38
2023-04-13T22:42:44.494Z,10.38
2023-04-13T22:45:14.665Z,10.37
2023-04-13T22:47:43.337Z,10.36
2023-04-13T22:50:13.458Z,10.36
2023-04-13T22:52:44.796Z,10.34
2023-04-13T22:55:17.624Z,10.33
2023-04-13T22:57:47.156Z,10.34
2023-04-13T23:00:18.894Z,10.35
2023-04-13T23:02:50.968Z,10.33
2023-04-13T23:05:20.172Z,10.31
2023-04-13T23:07:49.978Z,10.29
2023-04-13T23:10:18.636Z,10.23
2023-04-13T23:12:47.509Z,10.20
2023-04-13T23:15:16.970Z,10.20
2023-04-13T23:17:47.236Z,10.20
2023-04-13T23:20:16.567Z,10.14
2023-04-13T23:22:45.253Z,10.08
2023-04-13T23:25:14.130Z,10.07
2023-04-13T23:27:43.189Z,10.06
2023-04-13T23:30:13.248Z,10.03
2023-04-13T23:32:44.074Z,10.03
2023-04-13T23:35:12.629Z,10.02
2023-04-13T23:37:43.093Z,10.03
2023-04-13T23:40:12.104Z,10.05
2023-04-13T23:42:40.641Z,10.07
2023-04-13T23:45:11.617Z,10.05
2023-04-13T23:47:40.800Z,10.03
2023-04-13T23:50:10.793Z,9.99
2023-04-13T23:52:39.413Z,9.98
2023-04-13T23:55:08.983Z,9.95
2023-04-13T23:57:39.260Z,9.93
